sensor_id;sensor_type;location;lat;lon;timestamp;pressure;altitude;pressure_sealevel;temperature
63689;BMP280;54895;40.928;14.480;2023-08-17T00:02:23;77959.63;;;-138.40
63689;BMP280;54895;40.928;14.480;2023-08-17T00:04:49;77959.63;;;-138.40
63689;BMP280;54895;40.928;14.480;2023-08-17T00:07:15;77959.63;;;-138.40
63689;BMP280;54895;40.928;14.480;2023-08-17T00:09:41;77959.63;;;-138.40
63689;BMP280;54895;40.928;14.480;2023-08-17T00:12:08;77959.63;;;-138.40
63689;BMP280;54895;40.928;14.480;2023-08-17T00:14:35;77959.63;;;-138.40
63689;BMP280;54895;40.928;14.480;2023-08-17T00:17:01;77959.63;;;-138.40
63689;BMP280;54895;40.928;14.480;2023-08-17T00:19:29;77959.63;;;-138.40
63689;BMP280;54895;40.928;14.480;2023-08-17T00:21:55;77959.63;;;-138.40
63689;BMP280;54895;40.928;14.480;2023-08-17T00:24:21;77959.63;;;-138.40
63689;BMP280;54895;40.928;14.480;2023-08-17T00:26:47;77959.63;;;-138.40
63689;BMP280;54895;40.928;14.480;2023-08-17T00:29:14;77959.63;;;-138.40
63689;BMP280;54895;40.928;14.480;2023-08-17T00:31:44;77959.63;;;-138.40
63689;BMP280;54895;40.928;14.480;2023-08-17T00:34:10;77959.63;;;-138.40
63689;BMP280;54895;40.928;14.480;2023-08-17T00:36:36;77959.63;;;-138.40
63689;BMP280;54895;40.928;14.480;2023-08-17T00:39:02;77959.63;;;-138.40
63689;BMP280;54895;40.928;14.480;2023-08-17T00:41:29;77959.63;;;-138.40
63689;BMP280;54895;40.928;14.480;2023-08-17T00:43:56;77959.63;;;-138.40
63689;BMP280;54895;40.928;14.480;2023-08-17T00:46:25;77959.63;;;-138.40
63689;BMP280;54895;40.928;14.480;2023-08-17T00:48:53;77959.63;;;-138.40
63689;BMP280;54895;40.928;14.480;2023-08-17T00:51:24;77959.63;;;-138.40
63689;BMP280;54895;40.928;14.480;2023-08-17T00:53:52;77959.63;;;-138.40
63689;BMP280;54895;40.928;14.480;2023-08-17T00:56:19;77959.63;;;-138.40
63689;BMP280;54895;40.928;14.480;2023-08-17T00:58:45;77959.63;;;-138.40
63689;BMP280;54895;40.928;14.480;2023-08-17T01:01:11;77959.63;;;-138.40
63689;BMP280;54895;40.928;14.480;2023-08-17T01:03:40;77959.63;;;-138.40
63689;BMP280;54895;40.928;14.480;2023-08-17T01:06:08;77959.63;;;-138.40
63689;BMP280;54895;40.928;14.480;2023-08-17T01:08:36;77959.63;;;-138.40
63689;BMP280;54895;40.928;14.480;2023-08-17T01:11:27;77959.63;;;-138.40
63689;BMP280;54895;40.928;14.480;2023-08-17T01:14:10;77959.63;;;-138.40
63689;BMP280;54895;40.928;14.480;2023-08-17T01:16:50;77959.63;;;-138.40
63689;BMP280;54895;40.928;14.480;2023-08-17T01:19:24;77959.63;;;-138.40
63689;BMP280;54895;40.928;14.480;2023-08-17T01:21:55;77959.63;;;-138.40
63689;BMP280;54895;40.928;14.480;2023-08-17T01:24:23;77959.63;;;-138.40
63689;BMP280;54895;40.928;14.480;2023-08-17T01:26:49;77959.63;;;-138.40
63689;BMP280;54895;40.928;14.480;2023-08-17T01:29:15;77959.63;;;-138.40
63689;BMP280;54895;40.928;14.480;2023-08-17T01:32:01;77959.63;;;-138.40
63689;BMP280;54895;40.928;14.480;2023-08-17T01:34:33;77959.63;;;-138.40
63689;BMP280;54895;40.928;14.480;2023-08-17T01:37:01;77959.63;;;-138.40
63689;BMP280;54895;40.928;14.480;2023-08-17T01:39:36;77959.63;;;-138.40
63689;BMP280;54895;40.928;14.480;2023-08-17T01:42:04;77959.63;;;-138.40
63689;BMP280;54895;40.928;14.480;2023-08-17T01:44:31;77959.63;;;-138.40
63689;BMP280;54895;40.928;14.480;2023-08-17T01:46:57;77959.63;;;-138.40
63689;BMP280;54895;40.928;14.480;2023-08-17T01:49:24;77959.63;;;-138.40
63689;BMP280;54895;40.928;14.480;2023-08-17T01:51:50;77959.63;;;-138.40
63689;BMP280;54895;40.928;14.480;2023-08-17T01:54:16;77959.63;;;-138.40
63689;BMP280;54895;40.928;14.480;2023-08-17T01:56:42;77959.63;;;-138.40
63689;BMP280;54895;40.928;14.480;2023-08-17T01:59:09;77959.63;;;-138.40
63689;BMP280;54895;40.928;14.480;2023-08-17T02:01:35;77959.63;;;-138.40
63689;BMP280;54895;40.928;14.480;2023-08-17T02:04:03;77959.63;;;-138.40
63689;BMP280;54895;40.928;14.480;2023-08-17T02:06:30;77959.63;;;-138.40
63689;BMP280;54895;40.928;14.480;2023-08-17T02:08:58;77959.63;;;-138.40
63689;BMP280;54895;40.928;14.480;2023-08-17T02:11:24;77959.63;;;-138.40
63689;BMP280;54895;40.928;14.480;2023-08-17T02:13:51;77959.63;;;-138.40
63689;BMP280;54895;40.928;14.480;2023-08-17T02:16:18;77959.63;;;-138.40
63689;BMP280;54895;40.928;14.480;2023-08-17T02:18:44;77959.63;;;-138.40
63689;BMP280;54895;40.928;14.480;2023-08-17T02:21:10;77959.63;;;-138.40
63689;BMP280;54895;40.928;14.480;2023-08-17T02:23:39;77959.63;;;-138.40
63689;BMP280;54895;40.928;14.480;2023-08-17T02:26:05;77959.63;;;-138.40
63689;BMP280;54895;40.928;14.480;2023-08-17T02:28:32;77959.63;;;-138.40
63689;BMP280;54895;40.928;14.480;2023-08-17T02:30:58;77959.63;;;-138.40
63689;BMP280;54895;40.928;14.480;2023-08-17T02:33:27;77959.63;;;-138.40
63689;BMP280;54895;40.928;14.480;2023-08-17T02:35:53;77959.63;;;-138.40
63689;BMP280;54895;40.928;14.480;2023-08-17T02:38:20;77959.63;;;-138.40
63689;BMP280;54895;40.928;14.480;2023-08-17T02:40:48;77959.63;;;-138.40
63689;BMP280;54895;40.928;14.480;2023-08-17T02:43:15;77959.63;;;-138.40
63689;BMP280;54895;40.928;14.480;2023-08-17T02:45:41;77959.63;;;-138.40
63689;BMP280;54895;40.928;14.480;2023-08-17T02:48:07;77959.63;;;-138.40
63689;BMP280;54895;40.928;14.480;2023-08-17T02:50:33;77959.63;;;-138.40
63689;BMP280;54895;40.928;14.480;2023-08-17T02:53:00;77959.63;;;-138.40
63689;BMP280;54895;40.928;14.480;2023-08-17T02:55:28;77959.63;;;-138.40
63689;BMP280;54895;40.928;14.480;2023-08-17T02:57:54;77959.63;;;-138.40
63689;BMP280;54895;40.928;14.480;2023-08-17T03:00:20;77959.63;;;-138.40
63689;BMP280;54895;40.928;14.480;2023-08-17T03:02:46;77959.63;;;-138.40
63689;BMP280;54895;40.928;14.480;2023-08-17T03:05:13;77959.63;;;-138.40
63689;BMP280;54895;40.928;14.480;2023-08-17T03:07:39;77959.63;;;-138.40
63689;BMP280;54895;40.928;14.480;2023-08-17T03:10:07;77959.63;;;-138.40
63689;BMP280;54895;40.928;14.480;2023-08-17T03:12:33;77959.63;;;-138.40
63689;BMP280;54895;40.928;14.480;2023-08-17T03:15:00;77959.63;;;-138.40
63689;BMP280;54895;40.928;14.480;2023-08-17T03:17:29;77959.63;;;-138.40
63689;BMP280;54895;40.928;14.480;2023-08-17T03:19:56;77959.63;;;-138.40
63689;BMP280;54895;40.928;14.480;2023-08-17T03:22:25;77959.63;;;-138.40
63689;BMP280;54895;40.928;14.480;2023-08-17T03:24:55;77959.63;;;-138.40
63689;BMP280;54895;40.928;14.480;2023-08-17T03:27:24;77959.63;;;-138.40
63689;BMP280;54895;40.928;14.480;2023-08-17T03:29:51;77959.63;;;-138.40
63689;BMP280;54895;40.928;14.480;2023-08-17T03:32:17;77959.63;;;-138.40
63689;BMP280;54895;40.928;14.480;2023-08-17T06:32:30;101262.72;;;32.64
63689;BMP280;54895;40.928;14.480;2023-08-17T06:34:56;101254.13;;;33.28
63689;BMP280;54895;40.928;14.480;2023-08-17T06:37:23;101252.63;;;33.22
63689;BMP280;54895;40.928;14.480;2023-08-17T06:39:49;101245.78;;;33.26
63689;BMP280;54895;40.928;14.480;2023-08-17T06:42:15;101257.31;;;33.62
63689;BMP280;54895;40.928;14.480;2023-08-17T06:44:42;101260.72;;;34.16
63689;BMP280;54895;40.928;14.480;2023-08-17T06:47:08;101255.44;;;34.40
63689;BMP280;54895;40.928;14.480;2023-08-17T06:49:35;101251.31;;;34.45
63689;BMP280;54895;40.928;14.480;2023-08-17T06:52:01;101262.66;;;34.77
63689;BMP280;54895;40.928;14.480;2023-08-17T06:54:27;101250.88;;;33.97
63689;BMP280;54895;40.928;14.480;2023-08-17T06:56:54;101258.47;;;34.76
63689;BMP280;54895;40.928;14.480;2023-08-17T06:59:20;101255.44;;;34.40
63689;BMP280;54895;40.928;14.480;2023-08-17T07:01:46;101259.66;;;34.47
63689;BMP280;54895;40.928;14.480;2023-08-17T07:04:12;101253.88;;;34.23
63689;BMP280;54895;40.928;14.480;2023-08-17T07:06:38;101257.75;;;33.98
63689;BMP280;54895;40.928;14.480;2023-08-17T07:09:07;101259.81;;;34.67
63689;BMP280;54895;40.928;14.480;2023-08-17T07:11:33;101271.34;;;35.38
63689;BMP280;54895;40.928;14.480;2023-08-17T07:13:59;101282.38;;;35.30
63689;BMP280;54895;40.928;14.480;2023-08-17T07:16:25;101276.66;;;34.96
63689;BMP280;54895;40.928;14.480;2023-08-17T07:18:51;101281.22;;;35.73
63689;BMP280;54895;40.928;14.480;2023-08-17T07:21:18;101291.00;;;36.26
63689;BMP280;54895;40.928;14.480;2023-08-17T07:23:45;101299.38;;;36.49
63689;BMP280;54895;40.928;14.480;2023-08-17T07:26:11;101295.88;;;36.29
63689;BMP280;54895;40.928;14.480;2023-08-17T07:28:38;101299.34;;;36.22
63689;BMP280;54895;40.928;14.480;2023-08-17T07:31:04;101297.28;;;36.32
63689;BMP280;54895;40.928;14.480;2023-08-17T07:33:32;101293.81;;;36.24
63689;BMP280;54895;40.928;14.480;2023-08-17T07:35:58;101292.38;;;37.08
63689;BMP280;54895;40.928;14.480;2023-08-17T07:38:24;101301.44;;;36.83
63689;BMP280;54895;40.928;14.480;2023-08-17T07:40:50;101300.63;;;37.38
63689;BMP280;54895;40.928;14.480;2023-08-17T07:43:18;101310.88;;;37.77
63689;BMP280;54895;40.928;14.480;2023-08-17T07:45:54;101308.84;;;37.64
63689;BMP280;54895;40.928;14.480;2023-08-17T07:48:20;101312.16;;;37.90
63689;BMP280;54895;40.928;14.480;2023-08-17T07:51:03;101309.97;;;38.04
63689;BMP280;54895;40.928;14.480;2023-08-17T07:53:29;101315.34;;;38.34
63689;BMP280;54895;40.928;14.480;2023-08-17T07:55:56;101323.50;;;38.58
63689;BMP280;54895;40.928;14.480;2023-08-17T07:58:22;101326.22;;;38.64
63689;BMP280;54895;40.928;14.480;2023-08-17T08:00:52;101328.75;;;38.90
63689;BMP280;54895;40.928;14.480;2023-08-17T08:03:19;101333.22;;;38.57
63689;BMP280;54895;40.928;14.480;2023-08-17T08:05:45;101323.25;;;38.86
63689;BMP280;54895;40.928;14.480;2023-08-17T08:08:12;101327.28;;;38.97
63689;BMP280;54895;40.928;14.480;2023-08-17T08:10:38;101333.84;;;38.67
63689;BMP280;54895;40.928;14.480;2023-08-17T08:13:04;101336.31;;;38.19
63689;BMP280;54895;40.928;14.480;2023-08-17T08:15:31;101336.69;;;37.44
63689;BMP280;54895;40.928;14.480;2023-08-17T08:17:57;101341.88;;;38.19
63689;BMP280;54895;40.928;14.480;2023-08-17T08:20:24;101340.81;;;37.55
63689;BMP280;54895;40.928;14.480;2023-08-17T08:22:50;101343.31;;;38.08
63689;BMP280;54895;40.928;14.480;2023-08-17T08:25:16;101337.50;;;38.44
63689;BMP280;54895;40.928;14.480;2023-08-17T08:27:43;101340.19;;;38.58
63689;BMP280;54895;40.928;14.480;2023-08-17T08:30:09;101344.00;;;38.97
63689;BMP280;54895;40.928;14.480;2023-08-17T08:32:35;101348.44;;;38.68
63689;BMP280;54895;40.928;14.480;2023-08-17T08:35:02;101345.34;;;38.98
63689;BMP280;54895;40.928;14.480;2023-08-17T08:37:29;101344.81;;;37.91
63689;BMP280;54895;40.928;14.480;2023-08-17T08:39:55;101347.66;;;37.80
63689;BMP280;54895;40.928;14.480;2023-08-17T08:42:23;101352.41;;;38.01
63689;BMP280;54895;40.928;14.480;2023-08-17T08:44:50;101349.97;;;38.51
63689;BMP280;54895;40.928;14.480;2023-08-17T08:47:18;101356.19;;;38.58
63689;BMP280;54895;40.928;14.480;2023-08-17T08:52:19;101352.75;;;38.51
63689;BMP280;54895;40.928;14.480;2023-08-17T08:54:49;101340.44;;;39.02
63689;BMP280;54895;40.928;14.480;2023-08-17T08:57:17;101352.13;;;39.15
63689;BMP280;54895;40.928;14.480;2023-08-17T08:59:44;101345.16;;;38.46
63689;BMP280;54895;40.928;14.480;2023-08-17T09:02:16;101352.00;;;38.59
63689;BMP280;54895;40.928;14.480;2023-08-17T09:04:45;101347.72;;;38.71
63689;BMP280;54895;40.928;14.480;2023-08-17T09:07:13;101347.16;;;39.23
63689;BMP280;54895;40.928;14.480;2023-08-17T09:09:41;101352.28;;;39.61
63689;BMP280;54895;40.928;14.480;2023-08-17T09:12:08;101352.44;;;38.87
63689;BMP280;54895;40.928;14.480;2023-08-17T09:14:37;101348.28;;;38.86
63689;BMP280;54895;40.928;14.480;2023-08-17T09:17:04;101348.28;;;38.86
63689;BMP280;54895;40.928;14.480;2023-08-17T09:19:32;101348.91;;;38.06
63689;BMP280;54895;40.928;14.480;2023-08-17T09:26:08;101351.66;;;38.12
63689;BMP280;54895;40.928;14.480;2023-08-17T09:28:38;101344.97;;;37.52
63689;BMP280;54895;40.928;14.480;2023-08-17T09:31:05;101347.69;;;37.70
63689;BMP280;54895;40.928;14.480;2023-08-17T09:33:31;101347.56;;;38.87
63689;BMP280;54895;40.928;14.480;2023-08-17T09:35:59;101350.47;;;39.37
63689;BMP280;54895;40.928;14.480;2023-08-17T09:38:27;101348.97;;;37.96
63689;BMP280;54895;40.928;14.480;2023-08-17T09:40:54;101347.63;;;37.86
63689;BMP280;54895;40.928;14.480;2023-08-17T09:43:23;101346.78;;;38.95
63689;BMP280;54895;40.928;14.480;2023-08-17T09:45:54;101351.53;;;38.30
63689;BMP280;54895;40.928;14.480;2023-08-17T09:48:20;101345.81;;;38.50
63689;BMP280;54895;40.928;14.480;2023-08-17T09:50:47;101342.94;;;38.60
63689;BMP280;54895;40.928;14.480;2023-08-17T09:53:18;101325.78;;;39.06
63689;BMP280;54895;40.928;14.480;2023-08-17T09:55:45;101337.53;;;39.16
63689;BMP280;54895;40.928;14.480;2023-08-17T09:58:13;101344.59;;;38.29
63689;BMP280;54895;40.928;14.480;2023-08-17T10:00:48;101337.72;;;38.14
63689;BMP280;54895;40.928;14.480;2023-08-17T10:03:20;101330.53;;;38.47
63689;BMP280;54895;40.928;14.480;2023-08-17T10:05:56;101331.91;;;38.48
63689;BMP280;54895;40.928;14.480;2023-08-17T10:08:25;101332.88;;;39.53
63689;BMP280;54895;40.928;14.480;2023-08-17T10:10:54;101330.47;;;39.79
63689;BMP280;54895;40.928;14.480;2023-08-17T10:16:13;101322.03;;;38.63
63689;BMP280;54895;40.928;14.480;2023-08-17T10:25:52;101305.41;;;40.62
63689;BMP280;54895;40.928;14.480;2023-08-17T10:28:21;101319.47;;;38.43
63689;BMP280;54895;40.928;14.480;2023-08-17T10:30:48;101311.22;;;38.27
63689;BMP280;54895;40.928;14.480;2023-08-17T10:33:15;101315.88;;;37.43
63689;BMP280;54895;40.928;14.480;2023-08-17T10:35:42;101320.69;;;37.52
63689;BMP280;54895;40.928;14.480;2023-08-17T10:38:09;101311.31;;;38.17
63689;BMP280;54895;40.928;14.480;2023-08-17T10:40:37;101314.09;;;38.17
63689;BMP280;54895;40.928;14.480;2023-08-17T10:43:05;101312.13;;;37.98
63689;BMP280;54895;40.928;14.480;2023-08-17T10:45:33;101306.94;;;38.42
63689;BMP280;54895;40.928;14.480;2023-08-17T10:50:35;101297.75;;;39.22
63689;BMP280;54895;40.928;14.480;2023-08-17T10:53:10;101295.16;;;39.08
63689;BMP280;54895;40.928;14.480;2023-08-17T10:55:39;101302.88;;;40.46
63689;BMP280;54895;40.928;14.480;2023-08-17T10:58:13;101299.69;;;37.91
63689;BMP280;54895;40.928;14.480;2023-08-17T11:00:44;101308.44;;;38.27
63689;BMP280;54895;40.928;14.480;2023-08-17T11:03:20;101303.72;;;38.88
63689;BMP280;54895;40.928;14.480;2023-08-17T11:05:52;101298.56;;;39.68
63689;BMP280;54895;40.928;14.480;2023-08-17T11:08:33;101303.75;;;40.36
63689;BMP280;54895;40.928;14.480;2023-08-17T11:11:14;101300.19;;;40.40
63689;BMP280;54895;40.928;14.480;2023-08-17T11:13:45;101297.38;;;40.40
63689;BMP280;54895;40.928;14.480;2023-08-17T11:16:16;101300.03;;;40.48
63689;BMP280;54895;40.928;14.480;2023-08-17T11:18:46;101300.56;;;40.18
63689;BMP280;54895;40.928;14.480;2023-08-17T11:21:13;101295.56;;;40.65
63689;BMP280;54895;40.928;14.480;2023-08-17T11:29:12;101293.09;;;40.47
63689;BMP280;54895;40.928;14.480;2023-08-17T11:31:43;101287.84;;;41.01
63689;BMP280;54895;40.928;14.480;2023-08-17T11:34:20;101286.38;;;41.04
63689;BMP280;54895;40.928;14.480;2023-08-17T11:36:49;101291.81;;;41.12
63689;BMP280;54895;40.928;14.480;2023-08-17T11:39:16;101284.44;;;41.29
63689;BMP280;54895;40.928;14.480;2023-08-17T11:41:48;101281.34;;;40.76
63689;BMP280;54895;40.928;14.480;2023-08-17T11:44:19;101277.22;;;41.40
63689;BMP280;54895;40.928;14.480;2023-08-17T11:46:50;101280.44;;;41.22
63689;BMP280;54895;40.928;14.480;2023-08-17T11:49:17;101278.06;;;41.02
63689;BMP280;54895;40.928;14.480;2023-08-17T11:51:45;101277.28;;;41.38
63689;BMP280;54895;40.928;14.480;2023-08-17T11:54:12;101277.72;;;41.79
63689;BMP280;54895;40.928;14.480;2023-08-17T11:56:42;101278.47;;;41.47
63689;BMP280;54895;40.928;14.480;2023-08-17T11:59:10;101278.41;;;41.79
63689;BMP280;54895;40.928;14.480;2023-08-17T12:01:40;101264.50;;;41.17
63689;BMP280;54895;40.928;14.480;2023-08-17T12:04:08;101268.84;;;41.40
63689;BMP280;54895;40.928;14.480;2023-08-17T12:06:36;101272.75;;;41.53
63689;BMP280;54895;40.928;14.480;2023-08-17T12:09:05;101265.72;;;39.25
63689;BMP280;54895;40.928;14.480;2023-08-17T12:11:33;101266.03;;;39.97
63689;BMP280;54895;40.928;14.480;2023-08-17T12:14:08;101261.84;;;41.41
63689;BMP280;54895;40.928;14.480;2023-08-17T12:16:46;101265.34;;;40.75
63689;BMP280;54895;40.928;14.480;2023-08-17T12:19:16;101258.72;;;40.18
63689;BMP280;54895;40.928;14.480;2023-08-17T12:21:43;101258.38;;;39.98
63689;BMP280;54895;40.928;14.480;2023-08-17T12:26:57;101264.56;;;39.06
63689;BMP280;54895;40.928;14.480;2023-08-17T12:29:26;101259.53;;;39.18
63689;BMP280;54895;40.928;14.480;2023-08-17T12:31:53;101251.94;;;40.07
63689;BMP280;54895;40.928;14.480;2023-08-17T12:34:20;101257.41;;;40.87
63689;BMP280;54895;40.928;14.480;2023-08-17T12:36:48;101252.75;;;40.40
63689;BMP280;54895;40.928;14.480;2023-08-17T12:39:15;101257.59;;;40.77
63689;BMP280;54895;40.928;14.480;2023-08-17T12:41:42;101246.69;;;39.89
63689;BMP280;54895;40.928;14.480;2023-08-17T12:44:09;101250.88;;;39.88
63689;BMP280;54895;40.928;14.480;2023-08-17T12:46:40;101239.88;;;40.57
63689;BMP280;54895;40.928;14.480;2023-08-17T12:49:07;101241.06;;;40.67
63689;BMP280;54895;40.928;14.480;2023-08-17T12:51:33;101237.19;;;41.19
63689;BMP280;54895;40.928;14.480;2023-08-17T12:54:00;101240.31;;;41.03
63689;BMP280;54895;40.928;14.480;2023-08-17T12:56:38;101243.22;;;40.97
63689;BMP280;54895;40.928;14.480;2023-08-17T12:59:05;101242.34;;;41.39
63689;BMP280;54895;40.928;14.480;2023-08-17T13:01:32;101237.47;;;41.37
63689;BMP280;54895;40.928;14.480;2023-08-17T13:03:58;101244.03;;;41.26
63689;BMP280;54895;40.928;14.480;2023-08-17T13:06:25;101247.78;;;41.73
63689;BMP280;54895;40.928;14.480;2023-08-17T13:08:52;101230.09;;;41.24
63689;BMP280;54895;40.928;14.480;2023-08-17T13:11:18;101225.53;;;40.76
63689;BMP280;54895;40.928;14.480;2023-08-17T13:13:45;101226.91;;;40.77
63689;BMP280;54895;40.928;14.480;2023-08-17T13:16:11;101225.63;;;39.54
63689;BMP280;54895;40.928;14.480;2023-08-17T13:18:38;101227.63;;;40.42
63689;BMP280;54895;40.928;14.480;2023-08-17T13:21:05;101224.34;;;40.29
63689;BMP280;54895;40.928;14.480;2023-08-17T13:26:44;101221.00;;;41.54
63689;BMP280;54895;40.928;14.480;2023-08-17T13:29:10;101206.44;;;41.19
63689;BMP280;54895;40.928;14.480;2023-08-17T13:31:36;101215.06;;;41.09
63689;BMP280;54895;40.928;14.480;2023-08-17T13:34:03;101209.25;;;41.19
63689;BMP280;54895;40.928;14.480;2023-08-17T13:36:29;101210.25;;;40.73
63689;BMP280;54895;40.928;14.480;2023-08-17T13:38:55;101214.38;;;41.09
63689;BMP280;54895;40.928;14.480;2023-08-17T13:41:22;101218.69;;;41.34
63689;BMP280;54895;40.928;14.480;2023-08-17T13:43:50;101207.50;;;40.71
63689;BMP280;54895;40.928;14.480;2023-08-17T13:46:17;101211.53;;;40.78
63689;BMP280;54895;40.928;14.480;2023-08-17T13:48:43;101213.78;;;40.72
63689;BMP280;54895;40.928;14.480;2023-08-17T13:51:09;101211.16;;;40.62
63689;BMP280;54895;40.928;14.480;2023-08-17T13:53:40;101224.13;;;40.43
63689;BMP280;54895;40.928;14.480;2023-08-17T13:56:06;101210.19;;;40.41
63689;BMP280;54895;40.928;14.480;2023-08-17T13:58:32;101214.19;;;40.14
63689;BMP280;54895;40.928;14.480;2023-08-17T14:00:59;101214.69;;;40.24
63689;BMP280;54895;40.928;14.480;2023-08-17T14:03:25;101214.22;;;40.12
63689;BMP280;54895;40.928;14.480;2023-08-17T14:05:52;101211.56;;;40.76
63689;BMP280;54895;40.928;14.480;2023-08-17T14:08:18;101222.50;;;41.21
63689;BMP280;54895;40.928;14.480;2023-08-17T14:10:47;101223.03;;;40.95
63689;BMP280;54895;40.928;14.480;2023-08-17T14:13:13;101216.09;;;40.94
63689;BMP280;54895;40.928;14.480;2023-08-17T14:15:40;101215.94;;;40.67
63689;BMP280;54895;40.928;14.480;2023-08-17T14:18:07;101221.00;;;40.93
63689;BMP280;54895;40.928;14.480;2023-08-17T14:20:36;101218.31;;;40.87
63689;BMP280;54895;40.928;14.480;2023-08-17T14:23:05;101221.91;;;40.84
63689;BMP280;54895;40.928;14.480;2023-08-17T14:25:31;101215.84;;;41.06
63689;BMP280;54895;40.928;14.480;2023-08-17T14:27:58;101219.34;;;41.04
63689;BMP280;54895;40.928;14.480;2023-08-17T14:30:25;101213.31;;;40.60
63689;BMP280;54895;40.928;14.480;2023-08-17T14:32:52;101210.28;;;39.97
63689;BMP280;54895;40.928;14.480;2023-08-17T14:35:18;101207.38;;;40.77
63689;BMP280;54895;40.928;14.480;2023-08-17T14:37:44;101207.03;;;40.25
63689;BMP280;54895;40.928;14.480;2023-08-17T14:40:11;101202.47;;;40.05
63689;BMP280;54895;40.928;14.480;2023-08-17T14:42:39;101207.31;;;40.47
63689;BMP280;54895;40.928;14.480;2023-08-17T14:45:06;101207.13;;;40.55
63689;BMP280;54895;40.928;14.480;2023-08-17T14:47:33;101205.09;;;41.18
63689;BMP280;54895;40.928;14.480;2023-08-17T14:49:59;101209.28;;;40.53
63689;BMP280;54895;40.928;14.480;2023-08-17T14:52:25;101200.78;;;40.93
63689;BMP280;54895;40.928;14.480;2023-08-17T14:54:52;101206.81;;;41.03
63689;BMP280;54895;40.928;14.480;2023-08-17T14:57:21;101206.56;;;41.15
63689;BMP280;54895;40.928;14.480;2023-08-17T14:59:47;101199.88;;;41.02
63689;BMP280;54895;40.928;14.480;2023-08-17T15:02:13;101193.34;;;40.81
63689;BMP280;54895;40.928;14.480;2023-08-17T15:04:40;101199.91;;;40.68
63689;BMP280;54895;40.928;14.480;2023-08-17T15:07:08;101203.69;;;41.17
63689;BMP280;54895;40.928;14.480;2023-08-17T15:09:38;101201.50;;;40.91
63689;BMP280;54895;40.928;14.480;2023-08-17T15:12:04;101197.47;;;40.84
63689;BMP280;54895;40.928;14.480;2023-08-17T15:14:30;101200.91;;;41.17
63689;BMP280;54895;40.928;14.480;2023-08-17T15:16:57;101208.75;;;41.41
63689;BMP280;54895;40.928;14.480;2023-08-17T15:19:23;101209.78;;;41.26
63689;BMP280;54895;40.928;14.480;2023-08-17T15:21:49;101207.84;;;40.88
63689;BMP280;54895;40.928;14.480;2023-08-17T15:26:55;101210.78;;;40.46
63689;BMP280;54895;40.928;14.480;2023-08-17T15:29:40;101210.31;;;41.34
63689;BMP280;54895;40.928;14.480;2023-08-17T15:32:07;101210.09;;;40.81
63689;BMP280;54895;40.928;14.480;2023-08-17T15:34:33;101207.19;;;39.75
63689;BMP280;54895;40.928;14.480;2023-08-17T15:37:02;101216.00;;;39.45
63689;BMP280;54895;40.928;14.480;2023-08-17T15:39:29;101206.38;;;39.82
63689;BMP280;54895;40.928;14.480;2023-08-17T15:41:55;101204.03;;;39.52
63689;BMP280;54895;40.928;14.480;2023-08-17T15:44:22;101209.22;;;38.76
63689;BMP280;54895;40.928;14.480;2023-08-17T15:46:48;101206.91;;;38.34
63689;BMP280;54895;40.928;14.480;2023-08-17T15:49:17;101208.03;;;37.79
63689;BMP280;54895;40.928;14.480;2023-08-17T15:51:43;101211.16;;;38.25
63689;BMP280;54895;40.928;14.480;2023-08-17T15:54:10;101214.31;;;37.80
63689;BMP280;54895;40.928;14.480;2023-08-17T15:56:39;101203.44;;;37.34
63689;BMP280;54895;40.928;14.480;2023-08-17T15:59:05;101200.28;;;37.97
63689;BMP280;54895;40.928;14.480;2023-08-17T16:01:31;101200.91;;;38.74
63689;BMP280;54895;40.928;14.480;2023-08-17T16:03:58;101205.97;;;37.78
63689;BMP280;54895;40.928;14.480;2023-08-17T16:06:24;101202.81;;;37.19
63689;BMP280;54895;40.928;14.480;2023-08-17T16:08:51;101199.41;;;37.13
63689;BMP280;54895;40.928;14.480;2023-08-17T16:11:20;101195.06;;;37.46
63689;BMP280;54895;40.928;14.480;2023-08-17T16:13:46;101200.03;;;37.21
63689;BMP280;54895;40.928;14.480;2023-08-17T16:16:12;101211.84;;;37.22
63689;BMP280;54895;40.928;14.480;2023-08-17T16:18:39;101206.81;;;37.50
63689;BMP280;54895;40.928;14.480;2023-08-17T16:21:05;101208.97;;;37.44
63689;BMP280;54895;40.928;14.480;2023-08-17T16:23:32;101231.06;;;38.54
63689;BMP280;54895;40.928;14.480;2023-08-17T16:25:58;101232.97;;;39.73
63689;BMP280;54895;40.928;14.480;2023-08-17T16:28:24;101225.72;;;39.48
63689;BMP280;54895;40.928;14.480;2023-08-17T16:30:51;101227.16;;;39.89
63689;BMP280;54895;40.928;14.480;2023-08-17T16:33:17;101223.34;;;40.47
63689;BMP280;54895;40.928;14.480;2023-08-17T16:35:43;101214.69;;;39.40
63689;BMP280;54895;40.928;14.480;2023-08-17T16:38:10;101212.09;;;39.72
63689;BMP280;54895;40.928;14.480;2023-08-17T16:40:36;101218.28;;;40.19
63689;BMP280;54895;40.928;14.480;2023-08-17T16:43:02;101224.34;;;40.29
63689;BMP280;54895;40.928;14.480;2023-08-17T16:45:29;101211.97;;;39.34
63689;BMP280;54895;40.928;14.480;2023-08-17T16:47:56;101214.41;;;39.10
63689;BMP280;54895;40.928;14.480;2023-08-17T16:50:24;101213.34;;;39.35
63689;BMP280;54895;40.928;14.480;2023-08-17T16:52:51;101211.00;;;39.98
63689;BMP280;54895;40.928;14.480;2023-08-17T16:55:17;101211.91;;;41.25
63689;BMP280;54895;40.928;14.480;2023-08-17T16:57:46;101208.56;;;39.28
63689;BMP280;54895;40.928;14.480;2023-08-17T17:00:13;101210.09;;;37.83
63689;BMP280;54895;40.928;14.480;2023-08-17T17:02:39;101206.41;;;36.78
63689;BMP280;54895;40.928;14.480;2023-08-17T17:05:06;101205.06;;;36.65
63689;BMP280;54895;40.928;14.480;2023-08-17T17:07:32;101205.09;;;36.53
63689;BMP280;54895;40.928;14.480;2023-08-17T17:09:59;101211.13;;;38.29
63689;BMP280;54895;40.928;14.480;2023-08-17T17:12:25;101219.72;;;37.97
63689;BMP280;54895;40.928;14.480;2023-08-17T17:14:52;101219.91;;;37.68
63689;BMP280;54895;40.928;14.480;2023-08-17T17:17:19;101225.47;;;37.68